Time;durP1;ratioP1;P1;durP2;ratioP2;P2;SDS_P1;SDS_P2;PMS_P1;PMS_P2;Temp;Humidity;BMP_temperature;BMP_pressure;BME280_temperature;BME280_humidity;BME280_pressure;Samples;Min_cycle;Max_cycle;Signal;HPM_P1;HPM_P2
2022/07/06 00:01:30;;;;;;;3.88;2.40;;;;;;;12.65;69.80;102434.66;5051966;28;20119;-75
2022/07/06 00:03:57;;;;;;;4.45;2.40;;;;;;;12.63;69.79;102433.78;5054139;28;20104;-76
2022/07/06 00:06:24;;;;;;;4.78;2.28;;;;;;;12.61;69.67;102427.63;5049182;28;20057;-73
2022/07/06 00:08:51;;;;;;;3.95;2.50;;;;;;;12.60;69.60;102431.16;5054091;28;20103;-73
2022/07/06 00:11:19;;;;;;;3.33;2.25;;;;;;;12.58;70.07;102423.25;5052227;28;20120;-73
2022/07/06 00:13:46;;;;;;;4.35;2.40;;;;;;;12.57;70.09;102426.81;5056979;28;20060;-74
2022/07/06 00:16:13;;;;;;;4.38;2.67;;;;;;;12.55;69.76;102417.16;5050170;28;20045;-74
2022/07/06 00:18:41;;;;;;;5.53;2.60;;;;;;;12.54;70.14;102432.13;5051293;28;20038;-75
2022/07/06 00:21:08;;;;;;;5.75;2.78;;;;;;;12.50;69.69;102434.84;5051105;28;20052;-73
2022/07/06 00:23:35;;;;;;;4.72;2.17;;;;;;;12.48;69.85;102432.22;5053581;28;20588;-71
2022/07/06 00:26:03;;;;;;;6.47;2.70;;;;;;;12.48;69.85;102428.69;5052013;28;20390;-71
2022/07/06 00:28:30;;;;;;;4.35;2.63;;;;;;;12.46;70.03;102434.00;5053515;28;20134;-71
2022/07/06 00:30:57;;;;;;;6.80;2.70;;;;;;;12.45;70.43;102432.25;5052726;28;20037;-74
2022/07/06 00:33:24;;;;;;;5.03;2.60;;;;;;;12.42;70.28;102441.09;5053147;28;20473;-73
2022/07/06 00:35:52;;;;;;;5.07;3.00;;;;;;;12.40;70.05;102429.66;5052555;28;20045;-73
2022/07/06 00:38:19;;;;;;;4.70;2.88;;;;;;;12.39;70.72;102435.84;5051010;28;20516;-74
2022/07/06 00:40:47;;;;;;;6.80;3.00;;;;;;;12.36;70.61;102441.16;5053116;28;20659;-73
2022/07/06 00:43:15;;;;;;;6.93;3.00;;;;;;;12.35;70.91;102435.91;5052178;28;20045;-74
2022/07/06 00:45:44;;;;;;;4.60;2.78;;;;;;;12.34;70.99;102429.75;5047419;28;20136;-74
2022/07/06 00:48:12;;;;;;;4.57;2.78;;;;;;;12.32;70.91;102428.00;5045400;28;20116;-74
2022/07/06 00:50:39;;;;;;;7.97;2.80;;;;;;;12.30;71.59;102430.66;5048650;28;20092;-74
2022/07/06 00:53:08;;;;;;;6.47;3.00;;;;;;;12.25;71.61;102436.03;5049964;28;20112;-74
2022/07/06 00:55:41;;;;;;;4.57;2.78;;;;;;;12.22;72.00;102436.03;5053266;28;20053;-74
2022/07/06 00:58:09;;;;;;;11.52;3.38;;;;;;;12.18;72.03;102439.63;5050498;28;20121;-72
2022/07/06 01:00:37;;;;;;;7.38;3.10;;;;;;;12.14;71.89;102437.03;5052807;28;20045;-73
2022/07/06 01:03:05;;;;;;;6.88;3.28;;;;;;;12.12;72.04;102437.03;5051943;28;20038;-73
2022/07/06 01:05:32;;;;;;;4.63;2.83;;;;;;;12.10;72.17;102437.06;5047205;28;20815;-72
2022/07/06 01:08:00;;;;;;;6.75;2.97;;;;;;;12.08;72.43;102436.22;5049442;28;20578;-73
2022/07/06 01:10:28;;;;;;;4.47;3.22;;;;;;;12.05;72.42;102444.19;5050331;28;20052;-73
2022/07/06 01:12:59;;;;;;;6.47;2.97;;;;;;;12.03;72.41;102427.47;5051515;28;20688;-73
2022/07/06 01:15:27;;;;;;;5.72;2.95;;;;;;;12.02;72.31;102438.94;5048501;28;20033;-74
2022/07/06 01:17:54;;;;;;;9.98;3.90;;;;;;;12.00;72.31;102431.91;5049694;28;20556;-74
2022/07/06 01:20:28;;;;;;;7.43;3.47;;;;;;;11.99;72.21;102438.09;5049081;28;20041;-74
2022/07/06 01:22:59;;;;;;;3.65;3.17;;;;;;;11.96;71.99;102437.19;5050162;28;20103;-73
2022/07/06 01:25:27;;;;;;;3.60;3.13;;;;;;;11.94;72.27;102433.69;5051878;28;20037;-73
2022/07/06 01:27:54;;;;;;;4.65;3.40;;;;;;;11.94;72.48;102438.09;5051415;28;21076;-72
2022/07/06 01:30:21;;;;;;;5.63;3.40;;;;;;;11.92;72.80;102431.97;5051714;28;20051;-72
2022/07/06 01:32:50;;;;;;;7.93;3.70;;;;;;;11.90;73.00;102437.28;5041096;28;20062;-73
2022/07/06 01:35:17;;;;;;;5.72;3.58;;;;;;;11.89;73.24;102432.88;5047746;28;20053;-72
2022/07/06 01:37:44;;;;;;;6.45;4.30;;;;;;;11.87;73.35;102437.28;5051292;28;20042;-72
2022/07/06 01:40:13;;;;;;;8.32;4.03;;;;;;;11.85;73.50;102435.56;5049967;28;20099;-72
2022/07/06 01:42:41;;;;;;;8.80;4.00;;;;;;;11.85;73.21;102433.78;5049902;28;20179;-72
2022/07/06 01:45:10;;;;;;;7.30;3.83;;;;;;;11.84;73.14;102437.31;5048293;28;20061;-73
2022/07/06 01:47:38;;;;;;;7.47;3.65;;;;;;;11.80;73.36;102441.75;5048972;28;20041;-73
2022/07/06 01:50:08;;;;;;;4.82;3.17;;;;;;;11.79;73.90;102432.06;5050861;28;20769;-73
2022/07/06 01:52:39;;;;;;;5.00;3.55;;;;;;;11.76;73.30;102434.75;5046541;28;21920;-73
2022/07/06 01:55:07;;;;;;;7.60;3.75;;;;;;;11.74;73.25;102436.53;5050869;28;20076;-74
2022/07/06 01:57:36;;;;;;;4.70;3.53;;;;;;;11.74;73.64;102433.00;5051103;28;20048;-75
2022/07/06 02:00:08;;;;;;;7.35;3.60;;;;;;;11.72;73.82;102432.16;5048845;28;20544;-74
2022/07/06 02:02:45;;;;;;;7.60;3.58;;;;;;;11.69;74.05;102434.84;5050338;28;20408;-74
2022/07/06 02:05:12;;;;;;;6.32;3.47;;;;;;;11.69;74.06;102427.78;5033533;28;20045;-75
2022/07/06 02:07:40;;;;;;;4.70;3.85;;;;;;;11.71;74.18;102431.28;5040912;28;20508;-74
2022/07/06 02:10:09;;;;;;;7.20;3.60;;;;;;;11.70;74.08;102432.16;5031183;28;20529;-74
2022/07/06 02:12:37;;;;;;;5.95;3.70;;;;;;;11.68;74.12;102428.66;5042276;28;20099;-74
2022/07/06 02:15:05;;;;;;;4.38;3.75;;;;;;;11.64;74.36;102427.81;5049663;28;20047;-75
2022/07/06 02:17:34;;;;;;;5.75;3.72;;;;;;;11.62;74.01;102429.59;5049527;28;20045;-75
2022/07/06 02:20:01;;;;;;;6.40;4.03;;;;;;;11.60;74.29;102426.09;5051946;28;20041;-75
2022/07/06 02:22:28;;;;;;;8.80;4.18;;;;;;;11.57;74.52;102426.13;5049481;28;20493;-74
2022/07/06 02:24:56;;;;;;;6.68;4.28;;;;;;;11.54;74.48;102433.22;5050543;28;20088;-72
2022/07/06 02:27:24;;;;;;;9.77;4.50;;;;;;;11.49;74.60;102434.13;5046222;28;20041;-73
2022/07/06 02:29:52;;;;;;;8.15;4.22;;;;;;;11.48;75.20;102436.78;5040628;28;20157;-72
2022/07/06 02:32:19;;;;;;;7.60;4.35;;;;;;;11.45;75.33;102431.53;5036320;28;20042;-73
2022/07/06 02:34:47;;;;;;;6.10;4.07;;;;;;;11.45;75.70;102431.53;5049242;28;20046;-73
2022/07/06 02:37:14;;;;;;;6.53;4.00;;;;;;;11.43;75.51;102441.22;5049228;28;20045;-75
2022/07/06 02:39:41;;;;;;;7.78;4.20;;;;;;;11.40;75.77;102430.66;5049786;28;20458;-75
2022/07/06 02:42:09;;;;;;;7.70;4.63;;;;;;;11.36;75.82;102428.97;5046835;28;20532;-74
2022/07/06 02:44:37;;;;;;;12.60;4.70;;;;;;;11.33;75.99;102433.38;5035998;28;20572;-73
2022/07/06 02:47:04;;;;;;;8.98;4.70;;;;;;;11.31;75.89;102437.78;5048283;28;20474;-73
2022/07/06 02:49:32;;;;;;;16.95;5.57;;;;;;;11.29;75.71;102433.41;5049299;28;20034;-73
2022/07/06 02:51:59;;;;;;;10.05;4.78;;;;;;;11.29;75.63;102430.75;5032505;28;20049;-74
2022/07/06 02:54:27;;;;;;;10.20;4.78;;;;;;;11.26;75.60;102431.69;5049299;28;20053;-76
2022/07/06 02:56:54;;;;;;;10.70;4.45;;;;;;;11.25;75.66;102429.91;5048459;28;20077;-77
2022/07/06 02:59:21;;;;;;;10.40;4.50;;;;;;;11.23;76.00;102430.81;5045067;28;20053;-77
2022/07/06 03:01:49;;;;;;;6.45;4.32;;;;;;;11.22;76.43;102427.28;5048910;28;20479;-78
2022/07/06 03:04:17;;;;;;;8.38;4.38;;;;;;;11.21;76.25;102433.47;5055080;28;20111;-75
2022/07/06 03:06:45;;;;;;;8.43;4.60;;;;;;;11.18;76.54;102436.16;5047886;28;20050;-75
2022/07/06 03:09:13;;;;;;;9.60;4.72;;;;;;;11.18;76.45;102441.41;5046519;28;20127;-75
2022/07/06 03:11:40;;;;;;;7.07;4.70;;;;;;;11.16;76.71;102446.69;5053923;28;20045;-76
2022/07/06 03:14:08;;;;;;;9.73;4.65;;;;;;;11.16;77.23;102446.69;5040196;28;20045;-75
2022/07/06 03:16:39;;;;;;;10.07;4.53;;;;;;;11.17;77.20;102450.22;5037500;28;20042;-76
2022/07/06 03:19:07;;;;;;;10.60;4.72;;;;;;;11.14;77.34;102452.88;5051422;28;20045;-76
2022/07/06 03:21:35;;;;;;;9.88;5.30;;;;;;;11.13;77.30;102459.03;5051737;28;20044;-76
2022/07/06 03:24:03;;;;;;;5.43;4.38;;;;;;;11.13;77.67;102451.13;5051462;28;20054;-76
2022/07/06 03:26:30;;;;;;;8.68;4.97;;;;;;;11.10;77.31;102444.09;5053520;28;20183;-76
2022/07/06 03:28:59;;;;;;;8.63;4.50;;;;;;;11.10;77.72;102446.75;5052564;28;20046;-76
2022/07/06 03:31:26;;;;;;;6.63;4.35;;;;;;;11.10;77.73;102440.56;5053305;28;20069;-76
2022/07/06 03:33:54;;;;;;;7.43;4.50;;;;;;;11.09;77.55;102439.72;5051830;28;20045;-74
2022/07/06 03:36:21;;;;;;;8.82;5.00;;;;;;;11.08;77.59;102442.38;5049774;28;20057;-73
2022/07/06 03:38:49;;;;;;;8.65;4.00;;;;;;;11.07;78.06;102441.47;5040606;28;20131;-73
2022/07/06 03:41:17;;;;;;;9.82;4.85;;;;;;;11.09;78.04;102449.41;5051984;28;20041;-74
2022/07/06 03:43:45;;;;;;;6.25;4.72;;;;;;;11.09;77.93;102444.13;5051989;28;20045;-75
2022/07/06 03:46:12;;;;;;;6.75;4.35;;;;;;;11.11;78.10;102437.94;5053243;28;20041;-74
2022/07/06 03:48:39;;;;;;;8.15;4.10;;;;;;;11.14;78.06;102450.25;5050950;28;20038;-74
2022/07/06 03:51:08;;;;;;;6.68;4.50;;;;;;;11.16;77.92;102443.19;5051756;28;20046;-74
2022/07/06 03:53:35;;;;;;;8.18;4.57;;;;;;;11.19;78.07;102444.03;5051936;28;20046;-73
2022/07/06 03:58:48;;;;;;;10.88;4.63;;;;;;;11.26;78.03;102447.50;5052071;28;20054;-74
2022/07/06 04:01:20;;;;;;;8.55;4.47;;;;;;;11.41;77.44;102448.25;5069564;28;20145;-74
2022/07/06 04:03:47;;;;;;;14.68;4.70;;;;;;;11.52;76.88;102448.19;5056197;28;20048;-74
2022/07/06 04:06:15;;;;;;;10.43;4.32;;;;;;;11.50;76.83;102450.81;5052770;28;20037;-74
2022/07/06 04:08:43;;;;;;;10.95;4.50;;;;;;;11.44;76.71;102453.53;5049590;28;20069;-73
2022/07/06 04:11:10;;;;;;;15.35;5.07;;;;;;;11.45;76.97;102452.66;5066511;28;20048;-73
2022/07/06 04:13:38;;;;;;;17.90;5.18;;;;;;;11.45;76.81;102442.94;5048301;28;20049;-74
2022/07/06 04:16:07;;;;;;;12.82;4.97;;;;;;;11.50;76.87;102450.81;5051401;28;20128;-74
2022/07/06 04:18:35;;;;;;;9.18;4.15;;;;;;;11.54;76.49;102451.69;5042395;28;20057;-77
2022/07/06 04:21:04;;;;;;;9.10;4.20;;;;;;;11.57;76.71;102452.53;5050317;28;20055;-77
2022/07/06 04:23:34;;;;;;;12.85;5.13;;;;;;;11.58;76.75;102442.84;5043321;28;20045;-78
2022/07/06 04:26:03;;;;;;;24.08;4.78;;;;;;;11.63;76.84;102449.84;5036789;28;20046;-77
2022/07/06 04:28:41;;;;;;;15.60;5.55;;;;;;;11.68;76.58;102441.88;5032501;28;20044;-77
2022/07/06 04:31:09;;;;;;;9.40;4.18;;;;;;;11.70;76.80;102448.03;5048186;28;20041;-76
2022/07/06 04:33:37;;;;;;;7.20;4.07;;;;;;;11.70;76.71;102441.88;5047087;28;20045;-77
2022/07/06 04:36:04;;;;;;;8.38;4.57;;;;;;;11.69;76.64;102433.06;5046550;28;20837;-74
2022/07/06 04:38:40;;;;;;;7.43;4.35;;;;;;;11.73;76.73;102436.53;5032313;28;20046;-76
2022/07/06 04:41:08;;;;;;;9.32;4.20;;;;;;;11.78;76.45;102429.47;5035293;28;20053;-74
2022/07/06 04:43:35;;;;;;;9.50;4.53;;;;;;;11.81;76.36;102434.69;5046464;28;20517;-76
2022/07/06 04:46:03;;;;;;;12.38;4.47;;;;;;;11.89;76.04;102439.91;5045254;28;20045;-72
2022/07/06 04:48:36;;;;;;;12.05;4.45;;;;;;;12.00;76.20;102431.91;5046311;28;20096;-74
2022/07/06 04:51:04;;;;;;;8.43;4.45;;;;;;;12.16;76.02;102438.78;5044382;28;20125;-73
2022/07/06 04:53:31;;;;;;;7.60;4.60;;;;;;;12.31;75.52;102434.22;5043673;28;20072;-72
2022/07/06 04:55:58;;;;;;;12.55;4.78;;;;;;;12.46;75.29;102446.38;5045946;28;20048;-73
2022/07/06 04:58:28;;;;;;;8.52;5.30;;;;;;;12.60;74.49;102433.81;5058952;28;20095;-72
2022/07/06 05:00:55;;;;;;;7.70;4.90;;;;;;;12.77;74.02;102432.72;5043693;28;20130;-73
2022/07/06 05:03:26;;;;;;;8.93;4.45;;;;;;;12.88;73.97;102436.06;5046783;28;20096;-73
2022/07/06 05:05:57;;;;;;;15.40;4.38;;;;;;;13.00;73.82;102438.53;5025264;28;20041;-73
2022/07/06 05:08:24;;;;;;;7.32;3.75;;;;;;;13.16;73.23;102433.88;4963860;28;2385713;-73
2022/07/06 05:10:53;;;;;;;7.50;3.75;;;;;;;13.31;72.70;102437.19;5051080;28;20056;-73
2022/07/06 05:13:21;;;;;;;4.85;3.08;;;;;;;13.43;72.67;102433.50;5050808;28;20056;-73
2022/07/06 05:15:51;;;;;;;13.65;4.00;;;;;;;13.61;72.66;102433.16;5051337;28;20936;-73
2022/07/06 05:18:19;;;;;;;6.63;3.55;;;;;;;13.93;71.28;102442.31;5033105;28;20034;-73
2022/07/06 05:20:47;;;;;;;8.18;3.55;;;;;;;13.89;71.14;102448.56;5056491;28;20092;-74
2022/07/06 05:23:15;;;;;;;13.35;3.67;;;;;;;13.82;71.57;102442.53;5051194;28;20052;-73
2022/07/06 05:25:42;;;;;;;10.85;3.65;;;;;;;13.79;71.70;102450.53;5038163;28;20046;-73
2022/07/06 05:28:10;;;;;;;7.60;3.60;;;;;;;13.79;72.08;102452.28;5051056;28;20160;-73
2022/07/06 05:30:38;;;;;;;11.93;3.78;;;;;;;13.78;72.26;102454.06;5051027;28;20059;-73
2022/07/06 05:33:05;;;;;;;14.85;3.92;;;;;;;13.79;72.29;102450.53;5040283;28;20038;-76
2022/07/06 05:35:33;;;;;;;15.95;4.20;;;;;;;13.81;72.68;102453.13;5044435;28;20065;-75
2022/07/06 05:38:20;;;;;;;7.47;4.00;;;;;;;13.82;72.86;102452.25;5038217;28;20049;-76
2022/07/06 05:40:48;;;;;;;17.50;3.30;;;;;;;13.88;73.02;102457.44;5063026;28;20034;-75
2022/07/06 05:43:17;;;;;;;18.85;3.88;;;;;;;13.94;73.04;102452.03;5025725;28;20045;-75
2022/07/06 05:45:45;;;;;;;13.68;4.97;;;;;;;13.98;73.07;102456.38;5045962;28;20140;-75
2022/07/06 05:51:01;;;;;;;8.48;3.97;;;;;;;14.17;73.18;102458.66;5046187;28;20037;-75
2022/07/06 05:53:28;;;;;;;9.55;4.57;;;;;;;14.27;72.72;102459.34;5042548;28;20133;-75
2022/07/06 05:55:56;;;;;;;9.38;3.92;;;;;;;14.36;72.36;102463.59;5045412;28;20046;-76
2022/07/06 05:58:25;;;;;;;22.70;5.10;;;;;;;14.45;72.36;102469.56;5040007;28;20052;-75
2022/07/06 06:00:56;;;;;;;16.67;4.43;;;;;;;14.60;72.16;102468.38;5029748;28;20049;-76
2022/07/06 06:03:23;;;;;;;12.07;4.13;;;;;;;14.75;71.78;102469.84;5051713;28;20042;-76
2022/07/06 06:05:51;;;;;;;13.77;3.50;;;;;;;14.90;71.18;102465.13;5050942;28;20057;-76
2022/07/06 06:08:19;;;;;;;11.40;3.70;;;;;;;14.96;70.69;102466.75;5049979;28;20116;-76
2022/07/06 06:10:49;;;;;;;9.43;3.55;;;;;;;14.99;70.46;102472.88;5048652;28;20044;-77
2022/07/06 06:13:19;;;;;;;9.32;2.83;;;;;;;14.98;70.29;102470.25;5067816;28;20092;-76
2022/07/06 06:15:46;;;;;;;14.45;3.45;;;;;;;15.28;69.51;102459.81;5049865;28;20049;-76
2022/07/06 06:18:19;;;;;;;14.02;3.92;;;;;;;17.51;64.05;102469.44;5032811;28;20049;-76
2022/07/06 06:20:46;;;;;;;11.63;3.13;;;;;;;20.06;56.89;102464.06;5047382;28;20053;-76
2022/07/06 06:23:14;;;;;;;15.32;3.65;;;;;;;20.51;54.58;102462.00;5051745;28;20056;-77
2022/07/06 06:25:41;;;;;;;16.52;3.40;;;;;;;19.78;55.06;102465.25;5051419;28;20123;-75
2022/07/06 06:28:11;;;;;;;10.00;2.72;;;;;;;19.01;56.99;102460.44;5051573;28;20500;-75
2022/07/06 06:30:39;;;;;;;9.23;3.05;;;;;;;18.39;58.23;102462.78;5046304;28;20042;-75
2022/07/06 06:33:10;;;;;;;7.88;2.47;;;;;;;17.89;59.34;102472.56;5031479;28;20042;-74
2022/07/06 06:35:43;;;;;;;15.82;3.47;;;;;;;17.50;60.19;102462.34;5051089;28;20428;-75
2022/07/06 06:38:10;;;;;;;9.73;2.58;;;;;;;17.27;61.63;102461.31;5048783;28;20063;-74
2022/07/06 06:40:38;;;;;;;13.60;2.70;;;;;;;17.11;62.13;102462.75;5052091;28;20124;-75
2022/07/06 06:43:05;;;;;;;14.93;2.85;;;;;;;17.07;62.81;102465.50;5046128;28;20519;-78
2022/07/06 06:45:36;;;;;;;7.88;2.65;;;;;;;17.07;62.51;102454.84;5038006;28;20072;-77
2022/07/06 06:48:04;;;;;;;11.35;2.15;;;;;;;17.14;62.08;102457.34;5051554;28;20037;-78
2022/07/06 06:50:31;;;;;;;19.75;2.00;;;;;;;17.19;61.38;102458.94;5051588;28;20468;-77
2022/07/06 06:52:58;;;;;;;13.27;2.30;;;;;;;17.19;61.86;102466.03;5050460;28;20037;-75
2022/07/06 06:55:26;;;;;;;17.55;2.75;;;;;;;17.27;61.10;102464.00;5052208;28;20072;-77
2022/07/06 06:57:53;;;;;;;8.30;1.58;;;;;;;17.34;60.05;102462.00;5046398;28;20042;-77
2022/07/06 07:00:20;;;;;;;11.75;2.00;;;;;;;17.42;59.59;102465.28;5051893;28;20042;-77
2022/07/06 07:02:48;;;;;;;9.60;1.60;;;;;;;17.46;59.22;102469.59;5052171;28;20052;-77
2022/07/06 07:05:15;;;;;;;10.10;2.00;;;;;;;17.43;59.25;102471.50;5043725;28;20744;-77
2022/07/06 07:07:42;;;;;;;11.30;1.67;;;;;;;17.43;59.41;102476.81;5047640;28;20136;-77
2022/07/06 07:10:10;;;;;;;6.32;1.65;;;;;;;17.47;59.51;102475.78;5049694;28;20108;-76
2022/07/06 07:12:47;;;;;;;4.32;1.13;;;;;;;17.59;58.50;102469.19;5051482;28;20122;-77
2022/07/06 07:15:15;;;;;;;4.40;1.10;;;;;;;17.71;59.01;102468.72;5048563;28;24709;-77
2022/07/06 07:17:43;;;;;;;6.32;1.33;;;;;;;17.80;58.22;102480.88;5031607;28;20080;-76
2022/07/06 07:20:12;;;;;;;6.03;1.40;;;;;;;17.75;58.16;102482.88;5045856;28;20069;-76
2022/07/06 07:22:40;;;;;;;3.35;1.30;;;;;;;17.72;58.37;102481.16;5050486;28;20080;-77
2022/07/06 07:25:08;;;;;;;5.50;1.25;;;;;;;17.97;58.44;102472.34;5042155;28;20042;-77
2022/07/06 07:27:35;;;;;;;4.13;1.75;;;;;;;18.26;57.89;102483.75;5051341;28;20045;-78
2022/07/06 07:30:04;;;;;;;6.55;1.63;;;;;;;18.55;57.32;102482.66;5047525;28;20141;-76
2022/07/06 07:32:31;;;;;;;3.33;0.82;;;;;;;18.77;54.86;102471.16;5044818;28;20091;-75
2022/07/06 07:34:58;;;;;;;5.43;0.73;;;;;;;18.51;55.46;102483.69;5050618;28;20053;-76
2022/07/06 07:37:25;;;;;;;5.85;0.65;;;;;;;18.18;55.42;102481.34;5045036;28;20042;-76
2022/07/06 07:39:52;;;;;;;7.88;0.90;;;;;;;17.86;56.49;102480.66;5048802;28;20050;-76
2022/07/06 07:42:20;;;;;;;7.25;1.20;;;;;;;17.69;57.33;102482.13;5048521;28;20046;-77
2022/07/06 07:44:47;;;;;;;3.92;0.80;;;;;;;17.53;57.68;102487.13;5048137;28;20041;-77
2022/07/06 07:47:15;;;;;;;6.85;0.82;;;;;;;17.38;58.48;102480.50;5050922;28;20041;-76
2022/07/06 07:49:42;;;;;;;9.07;1.30;;;;;;;17.34;59.20;102484.22;5051631;28;20740;-76
2022/07/06 07:52:09;;;;;;;12.70;2.17;;;;;;;17.36;58.98;102489.47;5054679;28;20156;-77
2022/07/06 07:54:36;;;;;;;5.10;0.90;;;;;;;17.53;57.93;102478.25;5054571;28;20068;-76
2022/07/06 07:57:11;;;;;;;12.88;1.17;;;;;;;17.74;57.01;102478.44;5054427;28;20099;-76
2022/07/06 07:59:38;;;;;;;4.28;0.50;;;;;;;17.74;56.19;102481.13;5046398;28;20045;-76
2022/07/06 08:02:06;;;;;;;3.40;0.65;;;;;;;17.64;55.15;102483.22;5052797;28;20120;-76
2022/07/06 08:04:34;;;;;;;3.40;0.60;;;;;;;17.49;55.88;102476.59;5050658;28;20056;-76
2022/07/06 08:07:01;;;;;;;20.23;2.10;;;;;;;17.39;56.44;102481.38;5041820;28;20058;-77
2022/07/06 08:09:29;;;;;;;6.22;0.73;;;;;;;17.47;56.70;102474.00;5054545;28;20049;-77
2022/07/06 08:11:58;;;;;;;5.63;0.80;;;;;;;17.70;55.16;102470.53;5050756;28;20041;-76
2022/07/06 08:14:25;;;;;;;3.25;0.90;;;;;;;17.96;55.15;102462.56;5048825;28;20050;-76
2022/07/06 08:16:52;;;;;;;2.53;0.70;;;;;;;17.92;55.90;102468.91;5053230;28;20590;-76
2022/07/06 08:19:20;;;;;;;7.15;0.73;;;;;;;17.98;54.87;102464.25;5046342;28;20555;-77
2022/07/06 08:21:47;;;;;;;5.97;0.90;;;;;;;18.05;54.30;102464.91;5047813;28;20084;-76
2022/07/06 08:24:14;;;;;;;2.33;0.60;;;;;;;18.29;54.29;102456.94;5054003;28;20048;-75
2022/07/06 08:26:41;;;;;;;5.28;0.85;;;;;;;18.51;54.79;102458.81;5048302;28;20583;-76
2022/07/06 08:29:08;;;;;;;2.38;0.70;;;;;;;18.72;53.05;102457.09;5041867;28;20532;-76
2022/07/06 08:31:36;;;;;;;11.82;1.20;;;;;;;18.84;52.88;102458.41;5033951;28;20062;-78
2022/07/06 08:34:23;;;;;;;6.07;1.30;;;;;;;19.00;53.21;102450.69;5045101;28;20544;-78
2022/07/06 08:36:56;;;;;;;;;;;;;;;19.25;53.53;102447.88;5054259;28;20049;-78
2022/07/06 08:39:23;;;;;;;6.18;1.20;;;;;;;19.68;52.39;102450.53;5053913;28;19979;-77
2022/07/06 08:41:51;;;;;;;4.95;1.63;;;;;;;19.88;50.88;102448.81;5044491;28;20048;-78
2022/07/06 08:44:18;;;;;;;4.35;1.10;;;;;;;19.91;50.99;102444.19;5051314;28;20389;-78
2022/07/06 08:46:49;;;;;;;5.13;1.00;;;;;;;19.93;50.01;102458.38;5053760;28;20115;-77
2022/07/06 08:49:18;;;;;;;3.00;1.10;;;;;;;19.81;48.00;102446.38;5054012;28;20042;-76
2022/07/06 08:51:47;;;;;;;3.35;0.82;;;;;;;19.61;50.29;102462.41;5051531;28;20075;-77
2022/07/06 08:54:14;;;;;;;2.30;0.60;;;;;;;19.37;50.89;102454.53;5053409;28;20041;-77
2022/07/06 08:56:41;;;;;;;4.72;0.98;;;;;;;19.13;52.17;102453.75;5051786;28;20041;-78
2022/07/06 08:59:16;;;;;;;7.75;0.88;;;;;;;19.03;52.48;102456.75;5052819;28;20053;-77
2022/07/06 09:01:46;;;;;;;2.85;0.63;;;;;;;18.98;53.16;102445.41;5043422;28;20038;-76
2022/07/06 09:04:22;;;;;;;4.28;0.77;;;;;;;18.87;53.03;102448.44;5053501;28;20049;-76
2022/07/06 09:06:50;;;;;;;5.28;1.30;;;;;;;18.86;53.56;102449.41;5051904;28;20103;-77
2022/07/06 09:09:22;;;;;;;8.82;1.00;;;;;;;19.17;52.58;102444.66;5052342;28;20044;-75
2022/07/06 09:11:51;;;;;;;5.45;0.85;;;;;;;19.48;52.35;102441.56;5052708;28;20056;-78
2022/07/06 09:14:28;;;;;;;2.95;0.50;;;;;;;19.79;49.32;102440.22;5039110;28;20034;-78
2022/07/06 09:17:05;;;;;;;11.90;1.38;;;;;;;20.21;48.44;102435.72;5035539;28;20041;-78
2022/07/06 09:19:39;;;;;;;3.95;0.60;;;;;;;20.68;47.39;102441.59;5052996;28;20052;-78
2022/07/06 09:22:06;;;;;;;2.50;0.60;;;;;;;20.89;46.85;102443.25;5052627;28;20081;-78
2022/07/06 09:24:42;;;;;;;9.35;1.10;;;;;;;20.73;46.37;102452.97;5052523;28;20048;-77
2022/07/06 09:27:17;;;;;;;14.55;1.20;;;;;;;20.48;47.18;102451.44;5051613;28;20033;-77
2022/07/06 09:29:45;;;;;;;6.35;1.48;;;;;;;20.26;47.54;102449.75;5047975;28;20096;-78
2022/07/06 09:32:21;;;;;;;14.55;2.22;;;;;;;20.17;47.00;102445.72;5033439;28;20120;-79
2022/07/06 09:34:48;;;;;;;8.45;0.73;;;;;;;20.37;45.89;102449.28;5038021;28;20057;-78
2022/07/06 09:37:15;;;;;;;5.93;0.65;;;;;;;20.61;45.09;102441.00;5052766;28;20042;-78
2022/07/06 09:39:44;;;;;;;4.75;0.50;;;;;;;20.89;43.97;102442.41;5047176;28;20155;-79
2022/07/06 09:42:12;;;;;;;4.75;0.60;;;;;;;21.15;42.80;102434.88;5037863;28;20049;-77
2022/07/06 09:44:41;;;;;;;1.42;0.40;;;;;;;21.38;41.88;102433.69;5049909;28;20100;-77
2022/07/06 09:47:11;;;;;;;2.75;0.52;;;;;;;21.50;40.48;102443.81;5051902;28;20096;-78
2022/07/06 09:49:40;;;;;;;5.20;0.50;;;;;;;21.54;40.39;102450.75;5051326;28;20103;-77
2022/07/06 09:52:10;;;;;;;7.97;0.68;;;;;;;21.54;38.73;102448.09;5040009;28;20481;-78
2022/07/06 09:54:39;;;;;;;12.32;0.98;;;;;;;21.44;40.19;102454.88;5033164;28;20095;-78
2022/07/06 09:57:07;;;;;;;2.88;0.60;;;;;;;21.49;39.73;102449.25;5046342;28;20048;-78
2022/07/06 09:59:36;;;;;;;4.65;0.70;;;;;;;21.58;40.40;102456.84;5049431;28;20060;-78
2022/07/06 10:02:08;;;;;;;3.03;0.60;;;;;;;21.82;40.29;102441.31;5032756;28;20144;-78
2022/07/06 10:04:35;;;;;;;3.30;0.47;;;;;;;22.06;38.74;102449.00;5046075;28;20045;-78
2022/07/06 10:07:05;;;;;;;3.90;0.65;;;;;;;22.18;38.59;102448.31;5037818;28;20109;-78
2022/07/06 10:09:33;;;;;;;3.55;0.68;;;;;;;22.32;38.61;102444.00;5031731;28;20037;-78
2022/07/06 10:12:03;;;;;;;4.15;0.60;;;;;;;22.22;38.71;102451.72;5038728;28;20441;-78
2022/07/06 10:14:33;;;;;;;10.40;1.08;;;;;;;22.02;39.15;102453.69;5059076;28;20041;-78
2022/07/06 10:17:04;;;;;;;6.80;0.70;;;;;;;21.91;39.12;102457.84;5052235;28;20122;-78
2022/07/06 10:19:33;;;;;;;7.70;1.02;;;;;;;22.05;38.60;102454.44;5062272;28;20038;-78
2022/07/06 10:22:03;;;;;;;1.48;0.40;;;;;;;22.33;38.94;102449.28;5050981;28;20088;-77
2022/07/06 10:24:34;;;;;;;3.53;0.45;;;;;;;22.58;37.96;102455.19;5051554;28;20116;-77
2022/07/06 10:27:03;;;;;;;5.03;0.60;;;;;;;22.70;37.25;102448.25;5048475;28;20038;-78
2022/07/06 10:29:32;;;;;;;1.15;0.40;;;;;;;23.01;36.56;102443.78;5050474;28;20057;-77
2022/07/06 10:32:01;;;;;;;1.58;0.38;;;;;;;23.25;36.04;102447.75;5045513;28;20501;-77
2022/07/06 10:34:30;;;;;;;3.58;0.40;;;;;;;23.38;36.43;102447.03;5045405;28;20037;-77
2022/07/06 10:37:01;;;;;;;6.00;0.60;;;;;;;23.26;35.21;102448.63;5051316;28;20042;-77
2022/07/06 10:42:45;;;;;;;6.05;0.60;;;;;;;22.92;36.37;102446.06;5050634;28;20046;-79
2022/07/06 10:45:18;;;;;;;2.78;0.50;;;;;;;22.83;36.73;102451.97;5050036;28;20045;-78
2022/07/06 10:47:46;;;;;;;3.90;0.70;;;;;;;22.55;37.09;102444.59;5050892;28;20092;-77
2022/07/06 10:50:13;;;;;;;143.75;10.82;;;;;;;22.39;37.44;102448.09;5051318;28;20049;-77
2022/07/06 10:52:58;;;;;;;2.15;0.50;;;;;;;22.40;38.09;102443.59;5031906;28;20074;-78
2022/07/06 10:55:53;;;;;;;10.20;1.25;;;;;;;22.53;38.09;102442.00;5035396;28;20049;-76
2022/07/06 10:58:51;;;;;;;23.15;1.38;;;;;;;22.60;37.23;102434.44;5042614;28;20092;-77
2022/07/06 11:01:21;;;;;;;3.33;0.63;;;;;;;22.51;36.87;102443.91;5046496;28;20046;-78
2022/07/06 11:04:05;;;;;;;4.00;0.40;;;;;;;22.33;37.07;102438.53;5031784;28;20513;-78
2022/07/06 11:06:36;;;;;;;9.57;0.77;;;;;;;22.24;37.97;102430.16;5043642;28;20125;-77
2022/07/06 11:09:09;;;;;;;8.85;0.88;;;;;;;22.24;38.98;102433.69;5051858;28;20041;-78
2022/07/06 11:11:45;;;;;;;2.92;0.65;;;;;;;22.29;39.40;102438.81;5051622;28;20100;-78
2022/07/06 11:14:17;;;;;;;6.70;1.00;;;;;;;22.26;39.57;102439.00;5051570;28;20116;-79
2022/07/06 11:16:48;;;;;;;5.95;0.40;;;;;;;22.48;39.15;102441.38;5041930;28;20077;-78
2022/07/06 11:19:25;;;;;;;7.15;0.90;;;;;;;22.70;39.33;102430.28;5034637;28;20041;-78
2022/07/06 11:22:09;;;;;;;4.43;0.68;;;;;;;22.88;37.94;102438.28;5049789;28;20052;-72
2022/07/06 11:24:39;;;;;;;3.80;1.05;;;;;;;22.92;37.90;102431.75;5033624;28;20088;-75
2022/07/06 11:27:07;;;;;;;2.97;0.65;;;;;;;22.80;37.16;102427.94;5034948;28;20196;-75
2022/07/06 11:29:38;;;;;;;14.52;1.13;;;;;;;22.85;37.26;102425.00;5038548;28;20060;-73
2022/07/06 11:32:11;;;;;;;69.32;6.25;;;;;;;22.95;37.07;102427.03;5054062;28;20576;-77
2022/07/06 11:34:44;;;;;;;17.45;2.35;;;;;;;22.89;37.11;102431.94;5052924;28;20088;-77
2022/07/06 11:37:14;;;;;;;7.53;1.00;;;;;;;23.03;37.20;102423.91;5053563;28;20083;-78
2022/07/06 11:39:44;;;;;;;5.78;0.60;;;;;;;22.86;37.68;102419.50;5050791;28;20096;-78
2022/07/06 11:42:14;;;;;;;22.08;2.85;;;;;;;22.74;37.94;102422.94;5050748;28;20038;-77